Indaiatuba, Brazil
Current Conditions -  °F | °C
As of 9:00 PM on Wednesday 22 Oct 2014 (Local Time) from SBKP Reporting Station
Clear Clear  
Wind Chill: 66°   Ceiling: Unl
Heat Index: 66°   Visibility: 6mi
Dew Point: 55°   Wind: 24mph
Humidity: 68%   Direction: 140°SE
Pressure: 30.12"   Gusts: NA
Location:  23.09°S, 47.21°W
Report Text: SBKP 222300Z 14021KT CAVOK 19/13 Q1020
Loading
Personal Weather Stations






























Interactive Weather Map
Tropical Storm Tracking
New forecast layout! Learn more

10-Day Weather Forecast

Advertisements
Track Severe Weather on mobile